sensor_id;sensor_type;location;lat;lon;timestamp;temperature;humidity
57566;DHT22;63999;43.882;-0.310;2024-03-22T00:02:02;17.10;91.20
57566;DHT22;63999;43.882;-0.310;2024-03-22T00:04:29;17.10;91.10
57566;DHT22;63999;43.882;-0.310;2024-03-22T00:06:55;17.00;91.20
57566;DHT22;63999;43.882;-0.310;2024-03-22T00:09:21;17.00;91.00
57566;DHT22;63999;43.882;-0.310;2024-03-22T00:11:47;17.00;90.90
57566;DHT22;63999;43.882;-0.310;2024-03-22T00:14:13;17.00;90.90
57566;DHT22;63999;43.882;-0.310;2024-03-22T00:16:39;17.00;90.80
57566;DHT22;63999;43.882;-0.310;2024-03-22T00:19:06;17.00;90.90
57566;DHT22;63999;43.882;-0.310;2024-03-22T00:21:32;16.90;90.80
57566;DHT22;63999;43.882;-0.310;2024-03-22T00:23:58;16.90;90.70
57566;DHT22;63999;43.882;-0.310;2024-03-22T00:26:24;16.90;90.70
57566;DHT22;63999;43.882;-0.310;2024-03-22T00:28:50;16.90;90.60
57566;DHT22;63999;43.882;-0.310;2024-03-22T00:31:16;16.90;90.50
57566;DHT22;63999;43.882;-0.310;2024-03-22T00:33:43;16.90;90.60
57566;DHT22;63999;43.882;-0.310;2024-03-22T00:36:09;16.90;90.60
57566;DHT22;63999;43.882;-0.310;2024-03-22T00:38:35;16.90;90.50
57566;DHT22;63999;43.882;-0.310;2024-03-22T00:41:01;16.80;90.40
57566;DHT22;63999;43.882;-0.310;2024-03-22T00:43:27;16.80;90.40
57566;DHT22;63999;43.882;-0.310;2024-03-22T00:45:53;16.80;90.30
57566;DHT22;63999;43.882;-0.310;2024-03-22T00:48:19;16.80;90.20
57566;DHT22;63999;43.882;-0.310;2024-03-22T00:50:45;16.70;90.10
57566;DHT22;63999;43.882;-0.310;2024-03-22T00:53:11;16.70;90.10
57566;DHT22;63999;43.882;-0.310;2024-03-22T00:55:38;16.70;90.10
57566;DHT22;63999;43.882;-0.310;2024-03-22T00:58:04;16.70;90.00
57566;DHT22;63999;43.882;-0.310;2024-03-22T01:00:30;16.70;90.00
57566;DHT22;63999;43.882;-0.310;2024-03-22T01:02:56;16.60;90.00
57566;DHT22;63999;43.882;-0.310;2024-03-22T01:05:22;16.60;90.00
57566;DHT22;63999;43.882;-0.310;2024-03-22T01:07:48;16.60;89.90
57566;DHT22;63999;43.882;-0.310;2024-03-22T01:10:15;16.60;89.80
57566;DHT22;63999;43.882;-0.310;2024-03-22T01:12:41;16.60;89.80
57566;DHT22;63999;43.882;-0.310;2024-03-22T01:15:08;16.60;89.80
57566;DHT22;63999;43.882;-0.310;2024-03-22T01:17:34;16.50;89.80
57566;DHT22;63999;43.882;-0.310;2024-03-22T01:20:01;16.50;89.70
57566;DHT22;63999;43.882;-0.310;2024-03-22T01:22:27;16.50;89.90
57566;DHT22;63999;43.882;-0.310;2024-03-22T01:24:54;16.50;89.80
57566;DHT22;63999;43.882;-0.310;2024-03-22T01:27:20;16.50;89.70
57566;DHT22;63999;43.882;-0.310;2024-03-22T01:29:46;16.50;89.60
57566;DHT22;63999;43.882;-0.310;2024-03-22T01:32:13;16.50;89.60
57566;DHT22;63999;43.882;-0.310;2024-03-22T01:34:39;16.50;89.50
57566;DHT22;63999;43.882;-0.310;2024-03-22T01:37:05;16.40;89.40
57566;DHT22;63999;43.882;-0.310;2024-03-22T01:39:32;16.40;89.40
57566;DHT22;63999;43.882;-0.310;2024-03-22T01:41:58;16.40;89.40
57566;DHT22;63999;43.882;-0.310;2024-03-22T01:44:28;16.40;89.40
57566;DHT22;63999;43.882;-0.310;2024-03-22T01:46:54;16.40;89.40
57566;DHT22;63999;43.882;-0.310;2024-03-22T01:49:20;16.40;89.20
57566;DHT22;63999;43.882;-0.310;2024-03-22T01:51:47;16.40;89.20
57566;DHT22;63999;43.882;-0.310;2024-03-22T01:54:14;16.40;89.20
57566;DHT22;63999;43.882;-0.310;2024-03-22T01:56:41;16.30;89.30
57566;DHT22;63999;43.882;-0.310;2024-03-22T01:59:07;16.30;89.20
57566;DHT22;63999;43.882;-0.310;2024-03-22T02:01:33;16.30;89.20
57566;DHT22;63999;43.882;-0.310;2024-03-22T02:04:01;16.20;89.10
57566;DHT22;63999;43.882;-0.310;2024-03-22T02:06:27;16.20;89.10
57566;DHT22;63999;43.882;-0.310;2024-03-22T02:08:53;16.20;89.10
57566;DHT22;63999;43.882;-0.310;2024-03-22T02:11:19;16.20;89.00
57566;DHT22;63999;43.882;-0.310;2024-03-22T02:13:46;16.20;89.00
57566;DHT22;63999;43.882;-0.310;2024-03-22T02:16:12;16.20;88.90
57566;DHT22;63999;43.882;-0.310;2024-03-22T02:18:38;16.10;88.80
57566;DHT22;63999;43.882;-0.310;2024-03-22T02:21:04;16.10;88.70
57566;DHT22;63999;43.882;-0.310;2024-03-22T02:23:35;16.10;88.90
57566;DHT22;63999;43.882;-0.310;2024-03-22T02:26:02;16.10;88.80
57566;DHT22;63999;43.882;-0.310;2024-03-22T02:28:29;16.10;88.90
57566;DHT22;63999;43.882;-0.310;2024-03-22T02:30:55;16.10;88.90
57566;DHT22;63999;43.882;-0.310;2024-03-22T02:33:21;16.00;88.90
57566;DHT22;63999;43.882;-0.310;2024-03-22T02:35:48;16.10;88.90
57566;DHT22;63999;43.882;-0.310;2024-03-22T02:38:14;16.00;88.80
57566;DHT22;63999;43.882;-0.310;2024-03-22T02:40:43;16.00;88.80
57566;DHT22;63999;43.882;-0.310;2024-03-22T02:43:09;16.00;88.70
57566;DHT22;63999;43.882;-0.310;2024-03-22T02:45:35;16.00;88.80
57566;DHT22;63999;43.882;-0.310;2024-03-22T02:48:01;16.00;88.70
57566;DHT22;63999;43.882;-0.310;2024-03-22T02:50:27;16.00;88.60
57566;DHT22;63999;43.882;-0.310;2024-03-22T02:52:53;16.00;88.50
57566;DHT22;63999;43.882;-0.310;2024-03-22T02:55:19;16.00;88.50
57566;DHT22;63999;43.882;-0.310;2024-03-22T02:57:46;15.90;88.40
57566;DHT22;63999;43.882;-0.310;2024-03-22T03:00:12;15.90;88.30
57566;DHT22;63999;43.882;-0.310;2024-03-22T03:02:38;15.80;88.30
57566;DHT22;63999;43.882;-0.310;2024-03-22T03:05:04;15.80;88.30
57566;DHT22;63999;43.882;-0.310;2024-03-22T03:07:31;15.80;88.40
57566;DHT22;63999;43.882;-0.310;2024-03-22T03:09:57;15.80;88.30
57566;DHT22;63999;43.882;-0.310;2024-03-22T03:12:24;15.80;88.40
57566;DHT22;63999;43.882;-0.310;2024-03-22T03:14:50;15.80;88.30
57566;DHT22;63999;43.882;-0.310;2024-03-22T03:17:16;15.80;88.20
57566;DHT22;63999;43.882;-0.310;2024-03-22T03:19:42;15.80;88.00
57566;DHT22;63999;43.882;-0.310;2024-03-22T03:22:08;15.70;88.00
57566;DHT22;63999;43.882;-0.310;2024-03-22T03:24:34;15.70;87.80
57566;DHT22;63999;43.882;-0.310;2024-03-22T03:27:00;15.60;87.90
57566;DHT22;63999;43.882;-0.310;2024-03-22T03:29:26;15.60;87.80
57566;DHT22;63999;43.882;-0.310;2024-03-22T03:31:52;15.60;87.70
57566;DHT22;63999;43.882;-0.310;2024-03-22T03:34:18;15.60;87.70
57566;DHT22;63999;43.882;-0.310;2024-03-22T03:36:45;15.50;87.80
57566;DHT22;63999;43.882;-0.310;2024-03-22T03:39:12;15.50;87.70
57566;DHT22;63999;43.882;-0.310;2024-03-22T03:41:38;15.50;87.80
57566;DHT22;63999;43.882;-0.310;2024-03-22T03:44:04;15.50;87.80
57566;DHT22;63999;43.882;-0.310;2024-03-22T03:46:30;15.50;87.80
57566;DHT22;63999;43.882;-0.310;2024-03-22T03:48:57;15.50;87.70
57566;DHT22;63999;43.882;-0.310;2024-03-22T03:51:23;15.50;87.60
57566;DHT22;63999;43.882;-0.310;2024-03-22T03:53:49;15.50;87.60
57566;DHT22;63999;43.882;-0.310;2024-03-22T03:56:15;15.50;87.70
57566;DHT22;63999;43.882;-0.310;2024-03-22T03:58:41;15.50;87.60
57566;DHT22;63999;43.882;-0.310;2024-03-22T04:01:08;15.40;87.60
57566;DHT22;63999;43.882;-0.310;2024-03-22T04:03:35;15.40;87.70
57566;DHT22;63999;43.882;-0.310;2024-03-22T04:06:01;15.40;87.60
57566;DHT22;63999;43.882;-0.310;2024-03-22T04:08:28;15.40;87.50
57566;DHT22;63999;43.882;-0.310;2024-03-22T04:10:57;15.40;87.50
57566;DHT22;63999;43.882;-0.310;2024-03-22T04:13:27;15.40;87.60
57566;DHT22;63999;43.882;-0.310;2024-03-22T04:15:53;15.40;87.50
57566;DHT22;63999;43.882;-0.310;2024-03-22T04:18:20;15.40;87.50
57566;DHT22;63999;43.882;-0.310;2024-03-22T04:20:57;15.40;87.50
57566;DHT22;63999;43.882;-0.310;2024-03-22T04:23:23;15.40;87.60
57566;DHT22;63999;43.882;-0.310;2024-03-22T04:25:56;15.30;87.50
57566;DHT22;63999;43.882;-0.310;2024-03-22T04:28:23;15.30;87.50
57566;DHT22;63999;43.882;-0.310;2024-03-22T04:33:26;15.30;87.40
57566;DHT22;63999;43.882;-0.310;2024-03-22T04:35:52;15.30;87.50
57566;DHT22;63999;43.882;-0.310;2024-03-22T04:38:19;15.30;87.30
57566;DHT22;63999;43.882;-0.310;2024-03-22T04:40:45;15.30;87.30
57566;DHT22;63999;43.882;-0.310;2024-03-22T04:43:11;15.20;87.40
57566;DHT22;63999;43.882;-0.310;2024-03-22T04:45:37;15.20;87.30
57566;DHT22;63999;43.882;-0.310;2024-03-22T04:48:04;15.20;87.30
57566;DHT22;63999;43.882;-0.310;2024-03-22T04:50:31;15.20;87.20
57566;DHT22;63999;43.882;-0.310;2024-03-22T04:52:57;15.20;87.10
57566;DHT22;63999;43.882;-0.310;2024-03-22T04:55:23;15.10;87.00
57566;DHT22;63999;43.882;-0.310;2024-03-22T04:57:51;15.10;87.00
57566;DHT22;63999;43.882;-0.310;2024-03-22T05:00:17;15.00;87.00
57566;DHT22;63999;43.882;-0.310;2024-03-22T05:02:43;15.00;87.00
57566;DHT22;63999;43.882;-0.310;2024-03-22T05:05:09;15.00;86.90
57566;DHT22;63999;43.882;-0.310;2024-03-22T05:07:36;15.00;86.90
57566;DHT22;63999;43.882;-0.310;2024-03-22T05:10:02;15.00;86.80
57566;DHT22;63999;43.882;-0.310;2024-03-22T05:12:29;15.00;86.90
57566;DHT22;63999;43.882;-0.310;2024-03-22T05:14:55;15.00;86.80
57566;DHT22;63999;43.882;-0.310;2024-03-22T05:17:21;15.00;86.80
57566;DHT22;63999;43.882;-0.310;2024-03-22T05:19:47;14.90;86.70
57566;DHT22;63999;43.882;-0.310;2024-03-22T05:22:13;14.90;86.70
57566;DHT22;63999;43.882;-0.310;2024-03-22T05:24:40;14.90;86.80
57566;DHT22;63999;43.882;-0.310;2024-03-22T05:27:06;14.90;86.80
57566;DHT22;63999;43.882;-0.310;2024-03-22T05:29:32;14.90;86.80
57566;DHT22;63999;43.882;-0.310;2024-03-22T05:31:58;14.90;86.70
57566;DHT22;63999;43.882;-0.310;2024-03-22T05:34:26;14.90;86.70
57566;DHT22;63999;43.882;-0.310;2024-03-22T05:36:52;14.80;86.70
57566;DHT22;63999;43.882;-0.310;2024-03-22T05:39:18;14.80;86.60
57566;DHT22;63999;43.882;-0.310;2024-03-22T05:41:44;14.80;86.70
57566;DHT22;63999;43.882;-0.310;2024-03-22T05:44:14;14.80;86.60
57566;DHT22;63999;43.882;-0.310;2024-03-22T05:46:40;14.80;86.50
57566;DHT22;63999;43.882;-0.310;2024-03-22T05:49:06;14.80;86.50
57566;DHT22;63999;43.882;-0.310;2024-03-22T05:51:33;14.80;86.50
57566;DHT22;63999;43.882;-0.310;2024-03-22T05:53:59;14.80;86.50
57566;DHT22;63999;43.882;-0.310;2024-03-22T05:56:25;14.70;86.50
57566;DHT22;63999;43.882;-0.310;2024-03-22T05:58:51;14.70;86.50
57566;DHT22;63999;43.882;-0.310;2024-03-22T06:01:17;14.70;86.50
57566;DHT22;63999;43.882;-0.310;2024-03-22T06:03:43;14.70;86.40
57566;DHT22;63999;43.882;-0.310;2024-03-22T06:06:09;14.70;86.50
57566;DHT22;63999;43.882;-0.310;2024-03-22T06:08:36;14.70;86.40
57566;DHT22;63999;43.882;-0.310;2024-03-22T06:11:06;14.60;86.40
57566;DHT22;63999;43.882;-0.310;2024-03-22T06:13:33;14.60;86.30
57566;DHT22;63999;43.882;-0.310;2024-03-22T06:16:01;14.60;86.40
57566;DHT22;63999;43.882;-0.310;2024-03-22T06:18:26;14.60;86.40
57566;DHT22;63999;43.882;-0.310;2024-03-22T06:20:53;14.60;86.30
57566;DHT22;63999;43.882;-0.310;2024-03-22T06:23:23;14.60;86.30
57566;DHT22;63999;43.882;-0.310;2024-03-22T06:25:53;14.60;86.20
57566;DHT22;63999;43.882;-0.310;2024-03-22T06:28:20;14.50;86.20
57566;DHT22;63999;43.882;-0.310;2024-03-22T06:30:46;14.50;86.30
57566;DHT22;63999;43.882;-0.310;2024-03-22T06:33:12;14.50;86.30
57566;DHT22;63999;43.882;-0.310;2024-03-22T06:35:38;14.50;86.30
57566;DHT22;63999;43.882;-0.310;2024-03-22T06:38:04;14.50;86.20
57566;DHT22;63999;43.882;-0.310;2024-03-22T06:40:31;14.50;86.30
57566;DHT22;63999;43.882;-0.310;2024-03-22T06:42:57;14.50;86.20
57566;DHT22;63999;43.882;-0.310;2024-03-22T06:45:24;14.50;86.30
57566;DHT22;63999;43.882;-0.310;2024-03-22T06:47:50;14.50;86.30
57566;DHT22;63999;43.882;-0.310;2024-03-22T06:50:16;14.50;86.30
57566;DHT22;63999;43.882;-0.310;2024-03-22T06:52:53;14.50;86.30
57566;DHT22;63999;43.882;-0.310;2024-03-22T06:55:20;14.50;86.40
57566;DHT22;63999;43.882;-0.310;2024-03-22T06:57:47;14.50;86.40
57566;DHT22;63999;43.882;-0.310;2024-03-22T07:00:14;14.50;86.50
57566;DHT22;63999;43.882;-0.310;2024-03-22T07:02:40;14.50;86.60
57566;DHT22;63999;43.882;-0.310;2024-03-22T07:05:07;14.50;86.60
57566;DHT22;63999;43.882;-0.310;2024-03-22T07:07:34;14.60;86.70
57566;DHT22;63999;43.882;-0.310;2024-03-22T07:10:05;14.50;86.70
57566;DHT22;63999;43.882;-0.310;2024-03-22T07:12:34;14.60;86.80
57566;DHT22;63999;43.882;-0.310;2024-03-22T07:15:01;14.60;86.80
57566;DHT22;63999;43.882;-0.310;2024-03-22T07:17:28;14.60;86.90
57566;DHT22;63999;43.882;-0.310;2024-03-22T07:19:54;14.70;87.00
57566;DHT22;63999;43.882;-0.310;2024-03-22T07:22:22;14.60;87.00
57566;DHT22;63999;43.882;-0.310;2024-03-22T07:24:48;14.70;87.10
57566;DHT22;63999;43.882;-0.310;2024-03-22T07:27:15;14.70;87.20
57566;DHT22;63999;43.882;-0.310;2024-03-22T07:29:41;14.80;87.50
57566;DHT22;63999;43.882;-0.310;2024-03-22T07:32:08;14.80;87.60
57566;DHT22;63999;43.882;-0.310;2024-03-22T07:34:34;14.80;87.70
57566;DHT22;63999;43.882;-0.310;2024-03-22T07:37:00;14.90;87.80
57566;DHT22;63999;43.882;-0.310;2024-03-22T07:39:26;14.90;87.90
57566;DHT22;63999;43.882;-0.310;2024-03-22T07:41:52;15.00;88.00
57566;DHT22;63999;43.882;-0.310;2024-03-22T07:44:19;15.00;88.10
57566;DHT22;63999;43.882;-0.310;2024-03-22T07:46:50;15.00;88.20
57566;DHT22;63999;43.882;-0.310;2024-03-22T07:49:16;15.10;88.40
57566;DHT22;63999;43.882;-0.310;2024-03-22T07:51:43;15.10;88.40
57566;DHT22;63999;43.882;-0.310;2024-03-22T07:54:09;15.20;88.50
57566;DHT22;63999;43.882;-0.310;2024-03-22T07:56:35;15.20;88.70
57566;DHT22;63999;43.882;-0.310;2024-03-22T07:59:01;15.30;88.90
57566;DHT22;63999;43.882;-0.310;2024-03-22T08:01:27;15.30;89.20
57566;DHT22;63999;43.882;-0.310;2024-03-22T08:03:53;15.40;89.50
57566;DHT22;63999;43.882;-0.310;2024-03-22T08:06:19;15.50;89.60
57566;DHT22;63999;43.882;-0.310;2024-03-22T08:08:45;15.60;89.70
57566;DHT22;63999;43.882;-0.310;2024-03-22T08:11:11;15.60;89.70
57566;DHT22;63999;43.882;-0.310;2024-03-22T08:13:37;15.70;89.80
57566;DHT22;63999;43.882;-0.310;2024-03-22T08:16:04;15.70;90.00
57566;DHT22;63999;43.882;-0.310;2024-03-22T08:18:32;15.80;90.10
57566;DHT22;63999;43.882;-0.310;2024-03-22T08:20:59;15.80;90.30
57566;DHT22;63999;43.882;-0.310;2024-03-22T08:23:25;15.80;90.70
57566;DHT22;63999;43.882;-0.310;2024-03-22T08:25:51;16.00;90.70
57566;DHT22;63999;43.882;-0.310;2024-03-22T08:28:17;16.00;90.60
57566;DHT22;63999;43.882;-0.310;2024-03-22T08:30:43;16.00;90.70
57566;DHT22;63999;43.882;-0.310;2024-03-22T08:33:10;16.00;90.80
57566;DHT22;63999;43.882;-0.310;2024-03-22T08:35:37;16.00;90.70
57566;DHT22;63999;43.882;-0.310;2024-03-22T08:38:04;16.00;90.90
57566;DHT22;63999;43.882;-0.310;2024-03-22T08:40:39;16.00;91.00
57566;DHT22;63999;43.882;-0.310;2024-03-22T08:43:06;16.10;90.90
57566;DHT22;63999;43.882;-0.310;2024-03-22T08:45:35;16.10;91.10
57566;DHT22;63999;43.882;-0.310;2024-03-22T08:48:01;16.10;91.40
57566;DHT22;63999;43.882;-0.310;2024-03-22T08:50:28;16.20;91.60
57566;DHT22;63999;43.882;-0.310;2024-03-22T08:52:54;16.40;91.70
57566;DHT22;63999;43.882;-0.310;2024-03-22T08:55:20;16.40;91.60
57566;DHT22;63999;43.882;-0.310;2024-03-22T08:57:47;16.40;91.60
57566;DHT22;63999;43.882;-0.310;2024-03-22T09:00:13;16.40;91.90
57566;DHT22;63999;43.882;-0.310;2024-03-22T09:02:39;16.40;91.50
57566;DHT22;63999;43.882;-0.310;2024-03-22T09:05:06;16.40;91.50
57566;DHT22;63999;43.882;-0.310;2024-03-22T09:07:34;16.40;92.30
57566;DHT22;63999;43.882;-0.310;2024-03-22T09:10:00;16.50;91.80
57566;DHT22;63999;43.882;-0.310;2024-03-22T09:12:27;16.50;91.30
57566;DHT22;63999;43.882;-0.310;2024-03-22T09:14:53;16.40;91.80
57566;DHT22;63999;43.882;-0.310;2024-03-22T09:17:19;16.50;92.70
57566;DHT22;63999;43.882;-0.310;2024-03-22T09:19:47;16.70;92.30
57566;DHT22;63999;43.882;-0.310;2024-03-22T09:22:13;16.70;92.70
57566;DHT22;63999;43.882;-0.310;2024-03-22T09:24:41;16.80;92.90
57566;DHT22;63999;43.882;-0.310;2024-03-22T09:27:07;16.90;93.00
57566;DHT22;63999;43.882;-0.310;2024-03-22T09:29:36;17.00;94.30
57566;DHT22;63999;43.882;-0.310;2024-03-22T09:32:03;17.20;94.30
57566;DHT22;63999;43.882;-0.310;2024-03-22T09:34:29;17.30;94.30
57566;DHT22;63999;43.882;-0.310;2024-03-22T09:36:56;17.30;93.00
57566;DHT22;63999;43.882;-0.310;2024-03-22T09:39:23;17.20;92.90
57566;DHT22;63999;43.882;-0.310;2024-03-22T09:41:57;17.10;92.80
57566;DHT22;63999;43.882;-0.310;2024-03-22T09:44:23;17.10;93.10
57566;DHT22;63999;43.882;-0.310;2024-03-22T09:46:50;17.20;94.50
57566;DHT22;63999;43.882;-0.310;2024-03-22T09:49:17;17.30;94.40
57566;DHT22;63999;43.882;-0.310;2024-03-22T09:51:44;17.50;94.60
57566;DHT22;63999;43.882;-0.310;2024-03-22T09:54:11;17.50;94.90
57566;DHT22;63999;43.882;-0.310;2024-03-22T09:56:39;17.70;95.40
57566;DHT22;63999;43.882;-0.310;2024-03-22T09:59:09;17.80;95.80
57566;DHT22;63999;43.882;-0.310;2024-03-22T10:01:36;18.00;95.90
57566;DHT22;63999;43.882;-0.310;2024-03-22T10:04:03;18.00;95.80
57566;DHT22;63999;43.882;-0.310;2024-03-22T10:06:29;18.10;95.50
57566;DHT22;63999;43.882;-0.310;2024-03-22T10:08:58;18.00;95.00
57566;DHT22;63999;43.882;-0.310;2024-03-22T10:11:27;18.00;95.90
57566;DHT22;63999;43.882;-0.310;2024-03-22T10:13:53;18.00;95.20
57566;DHT22;63999;43.882;-0.310;2024-03-22T10:16:21;18.00;95.20
57566;DHT22;63999;43.882;-0.310;2024-03-22T10:18:48;18.00;95.10
57566;DHT22;63999;43.882;-0.310;2024-03-22T10:21:18;18.00;95.80
57566;DHT22;63999;43.882;-0.310;2024-03-22T10:23:44;18.00;95.70
57566;DHT22;63999;43.882;-0.310;2024-03-22T10:26:12;18.10;96.70
57566;DHT22;63999;43.882;-0.310;2024-03-22T10:28:45;18.20;96.70
57566;DHT22;63999;43.882;-0.310;2024-03-22T10:31:15;18.40;97.00
57566;DHT22;63999;43.882;-0.310;2024-03-22T10:33:41;18.40;96.80
57566;DHT22;63999;43.882;-0.310;2024-03-22T10:36:10;18.50;96.60
57566;DHT22;63999;43.882;-0.310;2024-03-22T10:38:38;18.40;96.30
57566;DHT22;63999;43.882;-0.310;2024-03-22T10:41:05;18.40;96.50
57566;DHT22;63999;43.882;-0.310;2024-03-22T10:43:31;18.50;96.50
57566;DHT22;63999;43.882;-0.310;2024-03-22T10:46:01;18.40;96.00
57566;DHT22;63999;43.882;-0.310;2024-03-22T10:48:30;18.30;95.10
57566;DHT22;63999;43.882;-0.310;2024-03-22T10:50:59;18.10;95.20
57566;DHT22;63999;43.882;-0.310;2024-03-22T10:53:26;18.10;95.30
57566;DHT22;63999;43.882;-0.310;2024-03-22T10:55:54;18.00;94.90
57566;DHT22;63999;43.882;-0.310;2024-03-22T10:58:22;18.00;96.10
57566;DHT22;63999;43.882;-0.310;2024-03-22T11:00:52;18.10;95.70
57566;DHT22;63999;43.882;-0.310;2024-03-22T11:03:25;18.10;96.20
57566;DHT22;63999;43.882;-0.310;2024-03-22T11:05:56;18.20;95.70
57566;DHT22;63999;43.882;-0.310;2024-03-22T11:08:27;18.10;95.00
57566;DHT22;63999;43.882;-0.310;2024-03-22T11:10:56;18.10;94.80
57566;DHT22;63999;43.882;-0.310;2024-03-22T11:13:22;18.00;95.20
57566;DHT22;63999;43.882;-0.310;2024-03-22T11:15:49;18.00;94.70
57566;DHT22;63999;43.882;-0.310;2024-03-22T11:18:17;18.00;94.90
57566;DHT22;63999;43.882;-0.310;2024-03-22T11:20:44;18.10;95.70
57566;DHT22;63999;43.882;-0.310;2024-03-22T11:23:12;18.20;95.90
57566;DHT22;63999;43.882;-0.310;2024-03-22T11:25:38;18.20;95.70
57566;DHT22;63999;43.882;-0.310;2024-03-22T11:28:05;18.30;96.10
57566;DHT22;63999;43.882;-0.310;2024-03-22T11:30:33;18.40;96.70
57566;DHT22;63999;43.882;-0.310;2024-03-22T11:33:03;18.60;97.80
57566;DHT22;63999;43.882;-0.310;2024-03-22T11:35:30;18.70;96.20
57566;DHT22;63999;43.882;-0.310;2024-03-22T11:37:56;18.60;97.00
57566;DHT22;63999;43.882;-0.310;2024-03-22T11:40:25;18.60;96.50
57566;DHT22;63999;43.882;-0.310;2024-03-22T11:42:54;18.70;96.70
57566;DHT22;63999;43.882;-0.310;2024-03-22T11:45:20;18.70;96.20
57566;DHT22;63999;43.882;-0.310;2024-03-22T11:47:47;18.60;95.70
57566;DHT22;63999;43.882;-0.310;2024-03-22T11:50:14;18.50;95.10
57566;DHT22;63999;43.882;-0.310;2024-03-22T11:52:41;18.40;95.50
57566;DHT22;63999;43.882;-0.310;2024-03-22T11:55:08;18.50;95.80
57566;DHT22;63999;43.882;-0.310;2024-03-22T11:57:34;18.50;96.30
57566;DHT22;63999;43.882;-0.310;2024-03-22T12:00:01;18.60;96.70
57566;DHT22;63999;43.882;-0.310;2024-03-22T12:02:28;18.70;96.60
57566;DHT22;63999;43.882;-0.310;2024-03-22T12:04:54;18.80;96.60
57566;DHT22;63999;43.882;-0.310;2024-03-22T12:07:20;18.80;96.70
57566;DHT22;63999;43.882;-0.310;2024-03-22T12:09:46;18.90;96.40
57566;DHT22;63999;43.882;-0.310;2024-03-22T12:12:13;18.80;96.40
57566;DHT22;63999;43.882;-0.310;2024-03-22T12:14:39;18.80;96.60
57566;DHT22;63999;43.882;-0.310;2024-03-22T12:17:06;18.90;96.40
57566;DHT22;63999;43.882;-0.310;2024-03-22T12:19:33;18.90;96.50
57566;DHT22;63999;43.882;-0.310;2024-03-22T12:21:59;18.80;95.70
57566;DHT22;63999;43.882;-0.310;2024-03-22T12:24:26;18.90;96.40
57566;DHT22;63999;43.882;-0.310;2024-03-22T12:26:53;18.90;96.20
57566;DHT22;63999;43.882;-0.310;2024-03-22T12:29:20;18.90;96.60
57566;DHT22;63999;43.882;-0.310;2024-03-22T12:31:47;19.00;97.10
57566;DHT22;63999;43.882;-0.310;2024-03-22T12:34:13;19.10;96.40
57566;DHT22;63999;43.882;-0.310;2024-03-22T12:36:39;19.10;97.30
57566;DHT22;63999;43.882;-0.310;2024-03-22T12:39:05;19.20;97.00
57566;DHT22;63999;43.882;-0.310;2024-03-22T12:41:32;19.20;96.40
57566;DHT22;63999;43.882;-0.310;2024-03-22T12:43:59;19.10;96.00
57566;DHT22;63999;43.882;-0.310;2024-03-22T12:46:26;19.00;95.70
57566;DHT22;63999;43.882;-0.310;2024-03-22T12:48:53;18.90;95.50
57566;DHT22;63999;43.882;-0.310;2024-03-22T12:51:20;18.90;95.90
57566;DHT22;63999;43.882;-0.310;2024-03-22T12:53:46;18.90;96.10
57566;DHT22;63999;43.882;-0.310;2024-03-22T12:56:12;18.90;96.70
57566;DHT22;63999;43.882;-0.310;2024-03-22T12:58:38;19.00;96.40
57566;DHT22;63999;43.882;-0.310;2024-03-22T13:01:05;19.00;95.90
57566;DHT22;63999;43.882;-0.310;2024-03-22T13:03:34;18.90;95.80
57566;DHT22;63999;43.882;-0.310;2024-03-22T13:06:00;19.00;95.80
57566;DHT22;63999;43.882;-0.310;2024-03-22T13:08:27;19.00;95.70
57566;DHT22;63999;43.882;-0.310;2024-03-22T13:10:53;18.90;95.10
57566;DHT22;63999;43.882;-0.310;2024-03-22T13:13:19;18.90;95.00
57566;DHT22;63999;43.882;-0.310;2024-03-22T13:15:45;18.90;96.80
57566;DHT22;63999;43.882;-0.310;2024-03-22T13:18:13;19.10;96.90
57566;DHT22;63999;43.882;-0.310;2024-03-22T13:20:39;19.20;96.90
57566;DHT22;63999;43.882;-0.310;2024-03-22T13:23:05;19.30;96.60
57566;DHT22;63999;43.882;-0.310;2024-03-22T13:25:35;19.30;96.40
57566;DHT22;63999;43.882;-0.310;2024-03-22T13:28:05;19.30;97.00
57566;DHT22;63999;43.882;-0.310;2024-03-22T13:30:32;19.40;96.90
57566;DHT22;63999;43.882;-0.310;2024-03-22T13:32:58;19.50;96.90
57566;DHT22;63999;43.882;-0.310;2024-03-22T13:35:25;19.50;96.30
57566;DHT22;63999;43.882;-0.310;2024-03-22T13:37:51;19.40;95.60
57566;DHT22;63999;43.882;-0.310;2024-03-22T13:40:17;19.30;96.20
57566;DHT22;63999;43.882;-0.310;2024-03-22T13:42:43;19.40;96.50
57566;DHT22;63999;43.882;-0.310;2024-03-22T13:45:09;19.40;96.30
57566;DHT22;63999;43.882;-0.310;2024-03-22T13:47:35;19.40;96.10
57566;DHT22;63999;43.882;-0.310;2024-03-22T13:50:07;19.40;96.60
57566;DHT22;63999;43.882;-0.310;2024-03-22T13:52:36;19.50;96.90
57566;DHT22;63999;43.882;-0.310;2024-03-22T13:55:02;19.50;96.00
57566;DHT22;63999;43.882;-0.310;2024-03-22T13:57:30;19.40;95.60
57566;DHT22;63999;43.882;-0.310;2024-03-22T13:59:58;19.40;95.60
57566;DHT22;63999;43.882;-0.310;2024-03-22T14:02:24;19.40;96.00
57566;DHT22;63999;43.882;-0.310;2024-03-22T14:04:50;19.40;96.30
57566;DHT22;63999;43.882;-0.310;2024-03-22T14:07:18;19.50;96.50
57566;DHT22;63999;43.882;-0.310;2024-03-22T14:09:44;19.50;95.40
57566;DHT22;63999;43.882;-0.310;2024-03-22T14:12:11;19.40;95.60
57566;DHT22;63999;43.882;-0.310;2024-03-22T14:14:38;19.40;95.90
57566;DHT22;63999;43.882;-0.310;2024-03-22T14:17:04;19.40;96.10
57566;DHT22;63999;43.882;-0.310;2024-03-22T14:19:30;19.40;96.00
57566;DHT22;63999;43.882;-0.310;2024-03-22T14:21:56;19.50;96.80
57566;DHT22;63999;43.882;-0.310;2024-03-22T14:24:22;19.70;96.40
57566;DHT22;63999;43.882;-0.310;2024-03-22T14:26:48;19.70;96.60
57566;DHT22;63999;43.882;-0.310;2024-03-22T14:29:14;19.70;96.20
57566;DHT22;63999;43.882;-0.310;2024-03-22T14:31:40;19.70;96.30
57566;DHT22;63999;43.882;-0.310;2024-03-22T14:34:09;19.70;96.60
57566;DHT22;63999;43.882;-0.310;2024-03-22T14:36:35;19.80;96.60
57566;DHT22;63999;43.882;-0.310;2024-03-22T14:39:01;19.90;96.50
57566;DHT22;63999;43.882;-0.310;2024-03-22T14:41:34;19.90;95.80
57566;DHT22;63999;43.882;-0.310;2024-03-22T14:44:00;19.80;96.30
57566;DHT22;63999;43.882;-0.310;2024-03-22T14:46:27;19.90;96.50
57566;DHT22;63999;43.882;-0.310;2024-03-22T14:48:55;20.00;96.60
57566;DHT22;63999;43.882;-0.310;2024-03-22T14:51:21;20.00;96.50
57566;DHT22;63999;43.882;-0.310;2024-03-22T14:53:47;20.00;96.60
57566;DHT22;63999;43.882;-0.310;2024-03-22T14:56:13;20.00;96.60
57566;DHT22;63999;43.882;-0.310;2024-03-22T14:58:40;20.00;96.50
57566;DHT22;63999;43.882;-0.310;2024-03-22T15:01:06;20.00;96.60
57566;DHT22;63999;43.882;-0.310;2024-03-22T15:03:34;20.00;96.40
57566;DHT22;63999;43.882;-0.310;2024-03-22T15:06:01;20.00;96.30
57566;DHT22;63999;43.882;-0.310;2024-03-22T15:08:28;20.00;96.10
57566;DHT22;63999;43.882;-0.310;2024-03-22T15:10:54;20.10;96.20
57566;DHT22;63999;43.882;-0.310;2024-03-22T15:13:21;20.10;96.10
57566;DHT22;63999;43.882;-0.310;2024-03-22T15:15:57;20.00;96.20